Sturkie, Arkansas
Current Conditions -  °F | °C
As of 3:53 PM on Sunday 23 Nov 2014 (Local Time) from KUNO Reporting Station
Overcast Overcast  
Wind Chill: 56°   Ceiling: 400
Heat Index: 56°   Visibility: 10mi
Dew Point: 54°   Wind: 6mph
Humidity: 93%   Direction: 180°S
Pressure: 29.34"   Gusts: NA
Location:  36.46°N, 91.87°W
Report Text: KUNO 232153Z AUTO 18005KT 10SM OVC004 13/12 A2934 RMK AO2 SLP930 T01330122
Loading
Personal Weather Stations






























Interactive Weather Map New forecast layout! Learn more

10-Day Weather Forecast

Advertisements
Track Severe Weather on mobile